sensor_id;sensor_type;location;lat;lon;timestamp;temperature;humidity
20566;DHT22;10441;50.884;12.064;2023-03-01T00:02:26;-3.00;99.90
20566;DHT22;10441;50.884;12.064;2023-03-01T00:04:54;-3.00;99.90
20566;DHT22;10441;50.884;12.064;2023-03-01T00:07:22;-3.00;99.90
20566;DHT22;10441;50.884;12.064;2023-03-01T00:09:50;-3.00;99.90
20566;DHT22;10441;50.884;12.064;2023-03-01T00:12:18;-3.10;99.90
20566;DHT22;10441;50.884;12.064;2023-03-01T00:14:47;-3.10;99.90
20566;DHT22;10441;50.884;12.064;2023-03-01T00:17:14;-3.20;99.90
20566;DHT22;10441;50.884;12.064;2023-03-01T00:19:49;-3.20;99.90
20566;DHT22;10441;50.884;12.064;2023-03-01T00:22:16;-3.20;99.90
20566;DHT22;10441;50.884;12.064;2023-03-01T00:24:43;-3.30;99.90
20566;DHT22;10441;50.884;12.064;2023-03-01T00:27:11;-3.40;99.90
20566;DHT22;10441;50.884;12.064;2023-03-01T00:29:42;-3.40;99.90
20566;DHT22;10441;50.884;12.064;2023-03-01T00:32:10;-3.40;99.90
20566;DHT22;10441;50.884;12.064;2023-03-01T00:34:38;-3.30;99.90
20566;DHT22;10441;50.884;12.064;2023-03-01T00:37:05;-3.40;99.90
20566;DHT22;10441;50.884;12.064;2023-03-01T00:39:32;-3.50;99.90
20566;DHT22;10441;50.884;12.064;2023-03-01T00:42:00;-3.50;99.90
20566;DHT22;10441;50.884;12.064;2023-03-01T00:44:28;-3.60;99.90
20566;DHT22;10441;50.884;12.064;2023-03-01T00:46:56;-3.60;99.90
20566;DHT22;10441;50.884;12.064;2023-03-01T00:49:25;-3.70;99.90
20566;DHT22;10441;50.884;12.064;2023-03-01T00:51:54;-3.80;99.90
20566;DHT22;10441;50.884;12.064;2023-03-01T00:54:21;-3.80;99.90
20566;DHT22;10441;50.884;12.064;2023-03-01T00:56:48;-3.80;99.90
20566;DHT22;10441;50.884;12.064;2023-03-01T00:59:16;-3.80;99.90
20566;DHT22;10441;50.884;12.064;2023-03-01T01:01:44;-3.90;99.90
20566;DHT22;10441;50.884;12.064;2023-03-01T01:04:12;-4.00;99.90
20566;DHT22;10441;50.884;12.064;2023-03-01T01:06:42;-3.90;99.90
20566;DHT22;10441;50.884;12.064;2023-03-01T01:09:10;-3.80;99.90
20566;DHT22;10441;50.884;12.064;2023-03-01T01:11:43;-3.70;99.90
20566;DHT22;10441;50.884;12.064;2023-03-01T01:14:11;-3.90;99.90
20566;DHT22;10441;50.884;12.064;2023-03-01T01:16:39;-4.00;99.90
20566;DHT22;10441;50.884;12.064;2023-03-01T01:19:06;-4.10;99.90
20566;DHT22;10441;50.884;12.064;2023-03-01T01:21:34;-4.00;99.90
20566;DHT22;10441;50.884;12.064;2023-03-01T01:24:04;-4.00;99.90
20566;DHT22;10441;50.884;12.064;2023-03-01T01:26:31;-3.90;99.90
20566;DHT22;10441;50.884;12.064;2023-03-01T01:28:59;-4.10;99.90
20566;DHT22;10441;50.884;12.064;2023-03-01T01:31:28;-4.00;99.90
20566;DHT22;10441;50.884;12.064;2023-03-01T01:33:56;-4.10;99.90
20566;DHT22;10441;50.884;12.064;2023-03-01T01:36:24;-4.10;99.90
20566;DHT22;10441;50.884;12.064;2023-03-01T01:38:52;-4.20;99.90
20566;DHT22;10441;50.884;12.064;2023-03-01T01:41:22;-4.10;99.90
20566;DHT22;10441;50.884;12.064;2023-03-01T01:46:34;-4.20;99.90
20566;DHT22;10441;50.884;12.064;2023-03-01T01:49:07;-4.20;99.90
20566;DHT22;10441;50.884;12.064;2023-03-01T01:51:35;-4.20;99.90
20566;DHT22;10441;50.884;12.064;2023-03-01T01:54:06;-4.30;99.90
20566;DHT22;10441;50.884;12.064;2023-03-01T01:56:36;-4.50;99.90
20566;DHT22;10441;50.884;12.064;2023-03-01T01:59:05;-4.30;99.90
20566;DHT22;10441;50.884;12.064;2023-03-01T02:01:33;-4.40;99.90
20566;DHT22;10441;50.884;12.064;2023-03-01T02:04:01;-4.60;99.90
20566;DHT22;10441;50.884;12.064;2023-03-01T02:06:29;-4.70;99.90
20566;DHT22;10441;50.884;12.064;2023-03-01T02:09:00;-4.70;99.90
20566;DHT22;10441;50.884;12.064;2023-03-01T02:11:29;-4.60;99.90
20566;DHT22;10441;50.884;12.064;2023-03-01T02:13:58;-4.70;99.90
20566;DHT22;10441;50.884;12.064;2023-03-01T02:16:26;-4.60;99.90
20566;DHT22;10441;50.884;12.064;2023-03-01T02:18:55;-4.60;99.90
20566;DHT22;10441;50.884;12.064;2023-03-01T02:21:31;-4.70;99.90
20566;DHT22;10441;50.884;12.064;2023-03-01T02:24:03;-4.80;99.90
20566;DHT22;10441;50.884;12.064;2023-03-01T02:26:36;-4.70;99.90
20566;DHT22;10441;50.884;12.064;2023-03-01T02:29:08;-4.60;99.90
20566;DHT22;10441;50.884;12.064;2023-03-01T02:31:36;-4.70;99.90
20566;DHT22;10441;50.884;12.064;2023-03-01T02:34:11;-4.80;99.90
20566;DHT22;10441;50.884;12.064;2023-03-01T02:36:40;-4.80;99.90
20566;DHT22;10441;50.884;12.064;2023-03-01T02:39:11;-4.70;99.90
20566;DHT22;10441;50.884;12.064;2023-03-01T02:41:41;-4.60;99.90
20566;DHT22;10441;50.884;12.064;2023-03-01T02:44:11;-4.60;99.90
20566;DHT22;10441;50.884;12.064;2023-03-01T02:46:42;-4.60;99.90
20566;DHT22;10441;50.884;12.064;2023-03-01T02:49:20;-4.60;99.90
20566;DHT22;10441;50.884;12.064;2023-03-01T02:51:52;-4.60;99.90
20566;DHT22;10441;50.884;12.064;2023-03-01T02:54:22;-4.70;99.90
20566;DHT22;10441;50.884;12.064;2023-03-01T02:56:52;-4.80;99.90
20566;DHT22;10441;50.884;12.064;2023-03-01T02:59:21;-4.80;99.90
20566;DHT22;10441;50.884;12.064;2023-03-01T03:01:49;-4.80;99.90
20566;DHT22;10441;50.884;12.064;2023-03-01T03:04:18;-4.70;99.90
20566;DHT22;10441;50.884;12.064;2023-03-01T03:06:46;-4.70;99.90
20566;DHT22;10441;50.884;12.064;2023-03-01T03:09:14;-4.70;99.90
20566;DHT22;10441;50.884;12.064;2023-03-01T03:11:43;-4.60;99.90
20566;DHT22;10441;50.884;12.064;2023-03-01T03:14:12;-4.50;99.90
20566;DHT22;10441;50.884;12.064;2023-03-01T03:16:46;-4.50;99.90
20566;DHT22;10441;50.884;12.064;2023-03-01T03:19:15;-4.60;99.90
20566;DHT22;10441;50.884;12.064;2023-03-01T03:21:43;-4.60;99.90
20566;DHT22;10441;50.884;12.064;2023-03-01T03:24:11;-4.80;99.90
20566;DHT22;10441;50.884;12.064;2023-03-01T03:26:39;-4.80;99.90
20566;DHT22;10441;50.884;12.064;2023-03-01T03:29:07;-4.90;99.90
20566;DHT22;10441;50.884;12.064;2023-03-01T03:31:35;-4.90;99.90
20566;DHT22;10441;50.884;12.064;2023-03-01T03:34:04;-5.00;99.90
20566;DHT22;10441;50.884;12.064;2023-03-01T03:36:32;-5.00;99.90
20566;DHT22;10441;50.884;12.064;2023-03-01T03:39:00;-5.00;99.90
20566;DHT22;10441;50.884;12.064;2023-03-01T03:41:29;-5.10;99.90
20566;DHT22;10441;50.884;12.064;2023-03-01T03:43:57;-5.10;99.90
20566;DHT22;10441;50.884;12.064;2023-03-01T03:46:25;-5.10;99.90
20566;DHT22;10441;50.884;12.064;2023-03-01T03:48:54;-5.00;99.90
20566;DHT22;10441;50.884;12.064;2023-03-01T03:51:23;-5.10;99.90
20566;DHT22;10441;50.884;12.064;2023-03-01T03:53:51;-5.10;99.90
20566;DHT22;10441;50.884;12.064;2023-03-01T03:56:19;-3.50;99.90
20566;DHT22;10441;50.884;12.064;2023-03-01T03:58:46;-5.10;99.90
20566;DHT22;10441;50.884;12.064;2023-03-01T04:01:14;-5.00;99.90
20566;DHT22;10441;50.884;12.064;2023-03-01T04:03:42;-5.00;99.90
20566;DHT22;10441;50.884;12.064;2023-03-01T04:06:13;-5.00;99.90
20566;DHT22;10441;50.884;12.064;2023-03-01T04:08:42;-5.00;99.90
20566;DHT22;10441;50.884;12.064;2023-03-01T04:11:11;-5.10;99.90
20566;DHT22;10441;50.884;12.064;2023-03-01T04:13:55;-5.20;99.90
20566;DHT22;10441;50.884;12.064;2023-03-01T04:16:23;-5.10;99.90
20566;DHT22;10441;50.884;12.064;2023-03-01T04:18:52;-5.20;99.90
20566;DHT22;10441;50.884;12.064;2023-03-01T04:21:21;-5.20;99.90
20566;DHT22;10441;50.884;12.064;2023-03-01T04:23:50;-5.30;99.90
20566;DHT22;10441;50.884;12.064;2023-03-01T04:26:19;-5.30;99.90
20566;DHT22;10441;50.884;12.064;2023-03-01T04:28:50;-5.20;99.90
20566;DHT22;10441;50.884;12.064;2023-03-01T04:31:18;-5.10;99.90
20566;DHT22;10441;50.884;12.064;2023-03-01T04:33:48;-5.10;99.90
20566;DHT22;10441;50.884;12.064;2023-03-01T04:36:17;-5.00;99.90
20566;DHT22;10441;50.884;12.064;2023-03-01T04:38:46;-5.20;99.90
20566;DHT22;10441;50.884;12.064;2023-03-01T04:41:17;-5.20;99.90
20566;DHT22;10441;50.884;12.064;2023-03-01T04:43:45;-5.20;99.90
20566;DHT22;10441;50.884;12.064;2023-03-01T04:46:16;-5.20;99.90
20566;DHT22;10441;50.884;12.064;2023-03-01T04:48:44;-5.20;99.90
20566;DHT22;10441;50.884;12.064;2023-03-01T04:51:13;-5.20;99.90
20566;DHT22;10441;50.884;12.064;2023-03-01T04:53:41;-5.20;99.90
20566;DHT22;10441;50.884;12.064;2023-03-01T04:56:08;-5.30;99.90
20566;DHT22;10441;50.884;12.064;2023-03-01T04:58:38;-5.20;99.90
20566;DHT22;10441;50.884;12.064;2023-03-01T05:01:09;-5.20;99.90
20566;DHT22;10441;50.884;12.064;2023-03-01T05:03:42;-5.20;99.90
20566;DHT22;10441;50.884;12.064;2023-03-01T05:06:10;-5.20;99.90
20566;DHT22;10441;50.884;12.064;2023-03-01T05:08:37;-5.20;99.90
20566;DHT22;10441;50.884;12.064;2023-03-01T05:11:05;-5.30;99.90
20566;DHT22;10441;50.884;12.064;2023-03-01T05:13:35;-5.30;99.90
20566;DHT22;10441;50.884;12.064;2023-03-01T05:16:05;-5.20;99.90
20566;DHT22;10441;50.884;12.064;2023-03-01T05:18:37;-5.20;99.90
20566;DHT22;10441;50.884;12.064;2023-03-01T05:21:09;-5.30;99.90
20566;DHT22;10441;50.884;12.064;2023-03-01T05:23:38;-5.40;99.90
20566;DHT22;10441;50.884;12.064;2023-03-01T05:26:05;-5.40;99.90
20566;DHT22;10441;50.884;12.064;2023-03-01T05:28:33;-5.50;99.90
20566;DHT22;10441;50.884;12.064;2023-03-01T05:31:01;-5.50;99.90
20566;DHT22;10441;50.884;12.064;2023-03-01T05:33:31;-5.50;99.90
20566;DHT22;10441;50.884;12.064;2023-03-01T05:35:59;-5.60;99.90
20566;DHT22;10441;50.884;12.064;2023-03-01T05:38:27;-5.60;99.90
20566;DHT22;10441;50.884;12.064;2023-03-01T05:40:56;-5.60;99.90
20566;DHT22;10441;50.884;12.064;2023-03-01T05:43:22;-5.50;99.90
20566;DHT22;10441;50.884;12.064;2023-03-01T05:45:51;-5.50;99.90
20566;DHT22;10441;50.884;12.064;2023-03-01T05:48:19;-5.70;99.90
20566;DHT22;10441;50.884;12.064;2023-03-01T05:50:48;-5.50;99.90
20566;DHT22;10441;50.884;12.064;2023-03-01T05:53:17;-5.50;99.90
20566;DHT22;10441;50.884;12.064;2023-03-01T05:55:46;-5.50;99.90
20566;DHT22;10441;50.884;12.064;2023-03-01T05:58:15;-5.40;99.90
20566;DHT22;10441;50.884;12.064;2023-03-01T06:00:46;-5.40;99.90
20566;DHT22;10441;50.884;12.064;2023-03-01T06:03:15;-5.30;99.90
20566;DHT22;10441;50.884;12.064;2023-03-01T06:05:42;-5.30;99.90
20566;DHT22;10441;50.884;12.064;2023-03-01T06:08:12;-5.30;99.90
20566;DHT22;10441;50.884;12.064;2023-03-01T06:10:40;-5.30;99.90
20566;DHT22;10441;50.884;12.064;2023-03-01T06:13:07;-5.30;99.90
20566;DHT22;10441;50.884;12.064;2023-03-01T06:15:35;-5.20;99.90
20566;DHT22;10441;50.884;12.064;2023-03-01T06:18:02;-5.20;99.90
20566;DHT22;10441;50.884;12.064;2023-03-01T06:20:32;-5.20;99.90
20566;DHT22;10441;50.884;12.064;2023-03-01T06:23:00;-5.20;99.90
20566;DHT22;10441;50.884;12.064;2023-03-01T06:25:28;-5.10;99.90
20566;DHT22;10441;50.884;12.064;2023-03-01T06:27:56;-5.20;99.90
20566;DHT22;10441;50.884;12.064;2023-03-01T06:30:23;-5.20;99.90
20566;DHT22;10441;50.884;12.064;2023-03-01T06:32:51;-4.70;99.90
20566;DHT22;10441;50.884;12.064;2023-03-01T06:35:27;-3.80;99.90
20566;DHT22;10441;50.884;12.064;2023-03-01T06:37:57;-3.20;99.90
20566;DHT22;10441;50.884;12.064;2023-03-01T06:40:25;-2.60;99.90
20566;DHT22;10441;50.884;12.064;2023-03-01T06:42:55;-2.40;99.90
20566;DHT22;10441;50.884;12.064;2023-03-01T06:45:23;-3.20;99.90
20566;DHT22;10441;50.884;12.064;2023-03-01T06:47:51;-2.80;99.90
20566;DHT22;10441;50.884;12.064;2023-03-01T06:50:19;-3.00;99.90
20566;DHT22;10441;50.884;12.064;2023-03-01T06:52:46;-2.70;99.90
20566;DHT22;10441;50.884;12.064;2023-03-01T06:55:13;-2.10;99.90
20566;DHT22;10441;50.884;12.064;2023-03-01T06:57:40;-3.00;99.90
20566;DHT22;10441;50.884;12.064;2023-03-01T07:00:09;-3.30;99.90
20566;DHT22;10441;50.884;12.064;2023-03-01T07:02:36;-3.10;99.90
20566;DHT22;10441;50.884;12.064;2023-03-01T07:05:03;-3.10;99.90
20566;DHT22;10441;50.884;12.064;2023-03-01T07:07:29;-3.30;99.90
20566;DHT22;10441;50.884;12.064;2023-03-01T07:09:56;-3.30;99.90
20566;DHT22;10441;50.884;12.064;2023-03-01T07:12:23;-3.10;99.90
20566;DHT22;10441;50.884;12.064;2023-03-01T07:14:50;-2.60;99.90
20566;DHT22;10441;50.884;12.064;2023-03-01T07:17:18;-2.40;99.90
20566;DHT22;10441;50.884;12.064;2023-03-01T07:19:45;-2.50;99.90
20566;DHT22;10441;50.884;12.064;2023-03-01T07:22:12;-2.10;99.90
20566;DHT22;10441;50.884;12.064;2023-03-01T07:24:39;-1.80;99.90
20566;DHT22;10441;50.884;12.064;2023-03-01T07:27:07;-2.10;99.90
20566;DHT22;10441;50.884;12.064;2023-03-01T07:29:34;-2.50;99.90
20566;DHT22;10441;50.884;12.064;2023-03-01T07:32:01;-2.30;99.90
20566;DHT22;10441;50.884;12.064;2023-03-01T07:34:30;-2.10;99.90
20566;DHT22;10441;50.884;12.064;2023-03-01T07:36:57;-2.10;99.90
20566;DHT22;10441;50.884;12.064;2023-03-01T07:39:24;-1.50;99.90
20566;DHT22;10441;50.884;12.064;2023-03-01T07:41:51;-0.80;99.90
20566;DHT22;10441;50.884;12.064;2023-03-01T07:44:18;-1.00;99.90
20566;DHT22;10441;50.884;12.064;2023-03-01T07:46:45;-1.40;99.90
20566;DHT22;10441;50.884;12.064;2023-03-01T07:49:12;-1.30;99.90
20566;DHT22;10441;50.884;12.064;2023-03-01T07:51:40;-0.90;99.90
20566;DHT22;10441;50.884;12.064;2023-03-01T07:54:07;-0.60;99.90
20566;DHT22;10441;50.884;12.064;2023-03-01T07:56:34;-0.50;99.90
20566;DHT22;10441;50.884;12.064;2023-03-01T07:59:01;-0.30;99.90
20566;DHT22;10441;50.884;12.064;2023-03-01T08:01:28;0.30;99.90
20566;DHT22;10441;50.884;12.064;2023-03-01T08:03:55;0.10;99.90
20566;DHT22;10441;50.884;12.064;2023-03-01T08:06:22;0.70;99.90
20566;DHT22;10441;50.884;12.064;2023-03-01T08:08:50;1.10;99.90
20566;DHT22;10441;50.884;12.064;2023-03-01T08:11:17;1.30;99.90
20566;DHT22;10441;50.884;12.064;2023-03-01T08:13:43;1.40;99.90
20566;DHT22;10441;50.884;12.064;2023-03-01T08:18:37;3.00;99.90
20566;DHT22;10441;50.884;12.064;2023-03-01T08:21:05;2.30;99.90
20566;DHT22;10441;50.884;12.064;2023-03-01T08:23:32;1.80;99.90
20566;DHT22;10441;50.884;12.064;2023-03-01T08:26:06;1.90;99.90
20566;DHT22;10441;50.884;12.064;2023-03-01T08:28:33;1.40;99.90
20566;DHT22;10441;50.884;12.064;2023-03-01T08:31:00;3.10;99.90
20566;DHT22;10441;50.884;12.064;2023-03-01T08:33:27;3.10;99.90
20566;DHT22;10441;50.884;12.064;2023-03-01T08:36:01;4.20;99.90
20566;DHT22;10441;50.884;12.064;2023-03-01T08:38:28;3.70;99.90
20566;DHT22;10441;50.884;12.064;2023-03-01T08:40:55;3.80;99.90
20566;DHT22;10441;50.884;12.064;2023-03-01T08:43:26;5.00;99.90
20566;DHT22;10441;50.884;12.064;2023-03-01T08:45:53;4.80;99.90
20566;DHT22;10441;50.884;12.064;2023-03-01T08:48:20;6.20;99.90
20566;DHT22;10441;50.884;12.064;2023-03-01T08:50:47;5.50;99.90
20566;DHT22;10441;50.884;12.064;2023-03-01T08:53:15;5.80;99.90
20566;DHT22;10441;50.884;12.064;2023-03-01T08:55:45;6.60;99.90
20566;DHT22;10441;50.884;12.064;2023-03-01T08:58:14;5.00;99.90
20566;DHT22;10441;50.884;12.064;2023-03-01T09:00:46;3.80;99.90
20566;DHT22;10441;50.884;12.064;2023-03-01T09:03:13;4.50;99.90
20566;DHT22;10441;50.884;12.064;2023-03-01T09:05:40;3.90;99.90
20566;DHT22;10441;50.884;12.064;2023-03-01T09:08:06;5.10;99.90
20566;DHT22;10441;50.884;12.064;2023-03-01T09:10:37;4.20;99.90
20566;DHT22;10441;50.884;12.064;2023-03-01T09:13:03;4.50;99.90
20566;DHT22;10441;50.884;12.064;2023-03-01T09:15:30;5.50;99.90
20566;DHT22;10441;50.884;12.064;2023-03-01T09:18:00;5.40;99.90
20566;DHT22;10441;50.884;12.064;2023-03-01T09:20:27;6.50;99.90
20566;DHT22;10441;50.884;12.064;2023-03-01T09:22:53;4.70;99.90
20566;DHT22;10441;50.884;12.064;2023-03-01T09:25:20;4.70;99.90
20566;DHT22;10441;50.884;12.064;2023-03-01T09:27:50;5.40;99.90
20566;DHT22;10441;50.884;12.064;2023-03-01T09:30:17;5.40;99.90
20566;DHT22;10441;50.884;12.064;2023-03-01T09:32:44;5.60;99.90
20566;DHT22;10441;50.884;12.064;2023-03-01T09:35:12;5.30;99.90
20566;DHT22;10441;50.884;12.064;2023-03-01T09:37:39;4.90;99.90
20566;DHT22;10441;50.884;12.064;2023-03-01T09:40:10;4.90;99.90
20566;DHT22;10441;50.884;12.064;2023-03-01T09:42:45;5.00;99.90
20566;DHT22;10441;50.884;12.064;2023-03-01T09:45:15;5.30;99.90
20566;DHT22;10441;50.884;12.064;2023-03-01T09:47:46;4.70;99.90
20566;DHT22;10441;50.884;12.064;2023-03-01T09:50:16;5.40;99.90
20566;DHT22;10441;50.884;12.064;2023-03-01T09:52:45;4.90;99.90
20566;DHT22;10441;50.884;12.064;2023-03-01T09:55:15;5.90;99.90
20566;DHT22;10441;50.884;12.064;2023-03-01T09:57:43;6.40;99.90
20566;DHT22;10441;50.884;12.064;2023-03-01T10:00:17;5.60;99.90
20566;DHT22;10441;50.884;12.064;2023-03-01T10:02:47;6.10;99.90
20566;DHT22;10441;50.884;12.064;2023-03-01T10:05:29;7.00;99.90
20566;DHT22;10441;50.884;12.064;2023-03-01T10:10:56;5.40;99.90
20566;DHT22;10441;50.884;12.064;2023-03-01T10:13:24;4.80;99.90
20566;DHT22;10441;50.884;12.064;2023-03-01T10:15:53;4.50;99.90
20566;DHT22;10441;50.884;12.064;2023-03-01T10:18:22;5.30;99.90
20566;DHT22;10441;50.884;12.064;2023-03-01T10:20:52;6.20;99.90
20566;DHT22;10441;50.884;12.064;2023-03-01T10:23:19;5.20;99.90
20566;DHT22;10441;50.884;12.064;2023-03-01T10:25:56;5.70;99.90
20566;DHT22;10441;50.884;12.064;2023-03-01T10:28:29;5.30;99.90
20566;DHT22;10441;50.884;12.064;2023-03-01T10:30:57;5.60;99.90
20566;DHT22;10441;50.884;12.064;2023-03-01T10:33:24;5.10;99.90
20566;DHT22;10441;50.884;12.064;2023-03-01T10:36:03;5.20;99.90
20566;DHT22;10441;50.884;12.064;2023-03-01T10:38:31;5.10;99.90
20566;DHT22;10441;50.884;12.064;2023-03-01T10:40:59;5.00;99.90
20566;DHT22;10441;50.884;12.064;2023-03-01T10:43:27;5.10;99.90
20566;DHT22;10441;50.884;12.064;2023-03-01T10:45:55;4.10;99.90
20566;DHT22;10441;50.884;12.064;2023-03-01T10:48:22;4.90;99.90
20566;DHT22;10441;50.884;12.064;2023-03-01T10:51:05;4.20;99.90
20566;DHT22;10441;50.884;12.064;2023-03-01T10:53:34;5.20;99.90
20566;DHT22;10441;50.884;12.064;2023-03-01T10:56:03;4.60;99.90
20566;DHT22;10441;50.884;12.064;2023-03-01T10:58:30;4.20;99.90
20566;DHT22;10441;50.884;12.064;2023-03-01T11:00:58;4.90;99.90
20566;DHT22;10441;50.884;12.064;2023-03-01T11:03:26;4.70;99.90
20566;DHT22;10441;50.884;12.064;2023-03-01T11:05:55;4.40;99.90
20566;DHT22;10441;50.884;12.064;2023-03-01T11:11:24;4.80;99.90
20566;DHT22;10441;50.884;12.064;2023-03-01T11:13:53;4.90;99.90
20566;DHT22;10441;50.884;12.064;2023-03-01T11:16:25;4.60;99.90
20566;DHT22;10441;50.884;12.064;2023-03-01T11:18:56;4.70;99.90
20566;DHT22;10441;50.884;12.064;2023-03-01T11:21:23;4.50;99.90
20566;DHT22;10441;50.884;12.064;2023-03-01T11:23:51;4.90;99.90
20566;DHT22;10441;50.884;12.064;2023-03-01T11:26:18;5.10;99.90
20566;DHT22;10441;50.884;12.064;2023-03-01T11:28:48;5.60;99.90
20566;DHT22;10441;50.884;12.064;2023-03-01T11:31:17;4.80;99.90
20566;DHT22;10441;50.884;12.064;2023-03-01T11:33:46;4.80;99.90
20566;DHT22;10441;50.884;12.064;2023-03-01T11:36:27;4.80;99.90
20566;DHT22;10441;50.884;12.064;2023-03-01T11:38:56;4.30;99.90
20566;DHT22;10441;50.884;12.064;2023-03-01T11:41:24;4.40;99.90
20566;DHT22;10441;50.884;12.064;2023-03-01T11:43:54;4.40;99.90
20566;DHT22;10441;50.884;12.064;2023-03-01T11:46:40;4.10;99.90
20566;DHT22;10441;50.884;12.064;2023-03-01T11:49:15;4.00;99.90
20566;DHT22;10441;50.884;12.064;2023-03-01T11:51:47;4.70;99.90
20566;DHT22;10441;50.884;12.064;2023-03-01T11:54:20;4.70;99.90
20566;DHT22;10441;50.884;12.064;2023-03-01T11:56:50;5.10;99.90
20566;DHT22;10441;50.884;12.064;2023-03-01T11:59:30;4.70;99.90
20566;DHT22;10441;50.884;12.064;2023-03-01T12:02:02;5.30;99.90
20566;DHT22;10441;50.884;12.064;2023-03-01T12:04:46;4.80;99.90
20566;DHT22;10441;50.884;12.064;2023-03-01T12:07:20;4.70;99.90
20566;DHT22;10441;50.884;12.064;2023-03-01T12:10:04;4.70;99.90
20566;DHT22;10441;50.884;12.064;2023-03-01T12:12:42;4.70;99.90
20566;DHT22;10441;50.884;12.064;2023-03-01T12:15:30;4.70;99.90
20566;DHT22;10441;50.884;12.064;2023-03-01T12:18:06;4.50;99.90
20566;DHT22;10441;50.884;12.064;2023-03-01T12:20:45;4.70;99.90
20566;DHT22;10441;50.884;12.064;2023-03-01T12:26:04;5.20;99.90
20566;DHT22;10441;50.884;12.064;2023-03-01T12:28:49;5.00;99.90
20566;DHT22;10441;50.884;12.064;2023-03-01T12:34:11;5.10;99.90
20566;DHT22;10441;50.884;12.064;2023-03-01T12:36:48;4.90;99.90
20566;DHT22;10441;50.884;12.064;2023-03-01T12:39:22;4.90;99.90
20566;DHT22;10441;50.884;12.064;2023-03-01T12:41:51;5.10;99.90
20566;DHT22;10441;50.884;12.064;2023-03-01T12:44:32;5.10;99.90
20566;DHT22;10441;50.884;12.064;2023-03-01T12:47:05;5.00;99.90
20566;DHT22;10441;50.884;12.064;2023-03-01T12:49:35;5.20;99.90
20566;DHT22;10441;50.884;12.064;2023-03-01T12:52:09;5.60;99.90
20566;DHT22;10441;50.884;12.064;2023-03-01T12:54:36;5.70;99.90
20566;DHT22;10441;50.884;12.064;2023-03-01T12:57:12;5.80;99.90
20566;DHT22;10441;50.884;12.064;2023-03-01T12:59:42;5.70;99.90
20566;DHT22;10441;50.884;12.064;2023-03-01T13:02:12;5.30;99.90
20566;DHT22;10441;50.884;12.064;2023-03-01T13:04:51;5.50;99.90
20566;DHT22;10441;50.884;12.064;2023-03-01T13:07:23;5.60;99.90
20566;DHT22;10441;50.884;12.064;2023-03-01T13:09:55;5.20;99.90
20566;DHT22;10441;50.884;12.064;2023-03-01T13:12:46;5.90;99.90
20566;DHT22;10441;50.884;12.064;2023-03-01T13:17:57;5.80;99.90
20566;DHT22;10441;50.884;12.064;2023-03-01T13:20:26;5.60;99.90
20566;DHT22;10441;50.884;12.064;2023-03-01T13:23:01;5.60;99.90
20566;DHT22;10441;50.884;12.064;2023-03-01T13:25:28;6.00;99.90
20566;DHT22;10441;50.884;12.064;2023-03-01T13:28:32;6.20;99.90
20566;DHT22;10441;50.884;12.064;2023-03-01T13:30:52;6.30;99.90
20566;DHT22;10441;50.884;12.064;2023-03-01T13:36:07;5.90;99.90
20566;DHT22;10441;50.884;12.064;2023-03-01T13:38:38;6.10;99.90
20566;DHT22;10441;50.884;12.064;2023-03-01T13:41:04;5.90;99.90
20566;DHT22;10441;50.884;12.064;2023-03-01T13:43:32;6.30;99.90
20566;DHT22;10441;50.884;12.064;2023-03-01T13:46:01;6.50;99.90
20566;DHT22;10441;50.884;12.064;2023-03-01T13:48:29;6.90;99.90
20566;DHT22;10441;50.884;12.064;2023-03-01T13:50:58;6.50;99.90
20566;DHT22;10441;50.884;12.064;2023-03-01T13:53:28;7.10;99.90
20566;DHT22;10441;50.884;12.064;2023-03-01T13:55:57;6.40;99.90
20566;DHT22;10441;50.884;12.064;2023-03-01T13:58:26;6.80;99.90
20566;DHT22;10441;50.884;12.064;2023-03-01T14:00:57;6.20;99.90
20566;DHT22;10441;50.884;12.064;2023-03-01T14:03:24;6.60;99.90
20566;DHT22;10441;50.884;12.064;2023-03-01T14:06:01;7.20;99.90
20566;DHT22;10441;50.884;12.064;2023-03-01T14:08:30;6.60;99.90
20566;DHT22;10441;50.884;12.064;2023-03-01T14:11:04;6.50;99.90
20566;DHT22;10441;50.884;12.064;2023-03-01T14:13:41;6.60;99.90
20566;DHT22;10441;50.884;12.064;2023-03-01T14:16:15;6.80;99.90
20566;DHT22;10441;50.884;12.064;2023-03-01T14:18:47;6.70;99.90
20566;DHT22;10441;50.884;12.064;2023-03-01T14:21:17;7.20;99.90
20566;DHT22;10441;50.884;12.064;2023-03-01T14:23:46;6.50;99.90
20566;DHT22;10441;50.884;12.064;2023-03-01T14:29:01;6.90;99.90
20566;DHT22;10441;50.884;12.064;2023-03-01T14:31:32;6.90;99.90
20566;DHT22;10441;50.884;12.064;2023-03-01T14:34:01;6.30;99.90
20566;DHT22;10441;50.884;12.064;2023-03-01T14:36:28;6.50;99.90
20566;DHT22;10441;50.884;12.064;2023-03-01T14:38:57;6.30;99.90
20566;DHT22;10441;50.884;12.064;2023-03-01T14:41:31;6.10;99.90
20566;DHT22;10441;50.884;12.064;2023-03-01T14:44:00;6.60;99.90
20566;DHT22;10441;50.884;12.064;2023-03-01T14:46:33;7.00;99.90
20566;DHT22;10441;50.884;12.064;2023-03-01T14:49:07;6.70;99.90
20566;DHT22;10441;50.884;12.064;2023-03-01T14:51:37;6.40;99.90
20566;DHT22;10441;50.884;12.064;2023-03-01T14:56:59;5.70;99.90
20566;DHT22;10441;50.884;12.064;2023-03-01T14:59:29;5.30;99.90
20566;DHT22;10441;50.884;12.064;2023-03-01T15:01:57;5.00;99.90
20566;DHT22;10441;50.884;12.064;2023-03-01T15:04:24;4.70;99.90
20566;DHT22;10441;50.884;12.064;2023-03-01T15:06:52;4.70;99.90
20566;DHT22;10441;50.884;12.064;2023-03-01T15:09:19;4.50;99.90
20566;DHT22;10441;50.884;12.064;2023-03-01T15:11:47;4.50;99.90
20566;DHT22;10441;50.884;12.064;2023-03-01T15:14:36;4.40;99.90
20566;DHT22;10441;50.884;12.064;2023-03-01T15:17:13;4.50;99.90
20566;DHT22;10441;50.884;12.064;2023-03-01T15:19:41;4.40;99.90
20566;DHT22;10441;50.884;12.064;2023-03-01T15:22:12;4.50;99.90
20566;DHT22;10441;50.884;12.064;2023-03-01T15:24:45;4.40;99.90
20566;DHT22;10441;50.884;12.064;2023-03-01T15:27:15;4.30;99.90
20566;DHT22;10441;50.884;12.064;2023-03-01T15:29:53;4.30;99.90
20566;DHT22;10441;50.884;12.064;2023-03-01T15:32:35;4.20;99.90
20566;DHT22;10441;50.884;12.064;2023-03-01T15:37:49;4.20;99.90
20566;DHT22;10441;50.884;12.064;2023-03-01T15:40:21;4.20;99.90
20566;DHT22;10441;50.884;12.064;2023-03-01T15:42:57;4.10;99.90
20566;DHT22;10441;50.884;12.064;2023-03-01T15:45:28;4.10;99.90
20566;DHT22;10441;50.884;12.064;2023-03-01T15:47:57;4.10;99.90
20566;DHT22;10441;50.884;12.064;2023-03-01T15:50:29;4.10;99.90
20566;DHT22;10441;50.884;12.064;2023-03-01T15:52:58;4.00;99.90
20566;DHT22;10441;50.884;12.064;2023-03-01T15:55:27;4.00;99.90
20566;DHT22;10441;50.884;12.064;2023-03-01T16:00:52;4.00;99.90
20566;DHT22;10441;50.884;12.064;2023-03-01T16:03:22;3.90;99.90
20566;DHT22;10441;50.884;12.064;2023-03-01T16:05:50;3.80;99.90
20566;DHT22;10441;50.884;12.064;2023-03-01T16:08:18;3.90;99.90
20566;DHT22;10441;50.884;12.064;2023-03-01T16:10:48;3.90;99.90
20566;DHT22;10441;50.884;12.064;2023-03-01T16:13:19;3.80;99.90